createdAt,value
2023-01-09T00:01:30.022Z,46.58
2023-01-09T00:03:57.677Z,42.53
2023-01-09T00:06:25.308Z,43.63
2023-01-09T00:08:52.628Z,49.35
2023-01-09T00:11:20.747Z,48.58
2023-01-09T00:13:48.190Z,43.85
2023-01-09T00:16:16.717Z,49.13
2023-01-09T00:18:44.098Z,51.22
2023-01-09T00:21:13.514Z,47.40
2023-01-09T00:23:41.086Z,49.08
2023-01-09T00:26:17.095Z,49.88
2023-01-09T00:28:47.592Z,49.97
2023-01-09T00:31:16.146Z,47.80
2023-01-09T00:33:50.472Z,49.03
2023-01-09T00:36:18.176Z,48.42
2023-01-09T00:38:45.459Z,50.55
2023-01-09T00:41:23.332Z,47.15
2023-01-09T00:43:58.726Z,49.03
2023-01-09T00:46:38.881Z,48.10
2023-01-09T00:49:09.738Z,48.05
2023-01-09T00:51:39.185Z,51.58
2023-01-09T00:54:06.930Z,47.42
2023-01-09T00:56:36.268Z,48.17
2023-01-09T00:59:04.705Z,46.90
2023-01-09T01:01:32.354Z,50.20
2023-01-09T01:04:19.814Z,53.88
2023-01-09T01:07:05.872Z,52.47
2023-01-09T01:09:33.243Z,58.38
2023-01-09T01:12:07.233Z,49.35
2023-01-09T01:14:39.599Z,52.08
2023-01-09T01:17:08.302Z,44.65
2023-01-09T01:19:36.444Z,56.15
2023-01-09T01:22:04.121Z,54.25
2023-01-09T01:24:31.542Z,55.13
2023-01-09T01:26:59.117Z,58.20
2023-01-09T01:29:27.882Z,61.10
2023-01-09T01:31:55.531Z,57.08
2023-01-09T01:34:23.127Z,61.55
2023-01-09T01:36:50.698Z,53.85
2023-01-09T01:39:18.211Z,53.60
2023-01-09T01:41:45.865Z,78.13
2023-01-09T01:45:00.029Z,66.45
2023-01-09T01:47:49.091Z,71.35
2023-01-09T01:50:49.917Z,71.25
2023-01-09T01:53:39.756Z,68.63
2023-01-09T01:56:30.504Z,68.07
2023-01-09T01:59:36.747Z,65.97
2023-01-09T02:02:05.296Z,66.95
2023-01-09T02:04:40.134Z,61.70
2023-01-09T02:07:10.315Z,65.25
2023-01-09T02:09:42.169Z,69.72
2023-01-09T02:12:26.075Z,64.65
2023-01-09T02:15:05.097Z,66.82
2023-01-09T02:18:04.305Z,70.53
2023-01-09T02:20:50.703Z,57.05
2023-01-09T02:23:50.930Z,64.72
2023-01-09T02:26:49.032Z,54.83
2023-01-09T02:29:43.956Z,62.50
2023-01-09T02:32:29.542Z,55.22
2023-01-09T02:35:32.883Z,71.88
2023-01-09T02:38:15.299Z,72.90
2023-01-09T02:41:11.412Z,67.70
2023-01-09T02:43:41.811Z,70.72
2023-01-09T02:46:21.797Z,64.95
2023-01-09T02:48:54.441Z,70.15
2023-01-09T02:51:54.413Z,72.35
2023-01-09T02:54:49.692Z,72.28
2023-01-09T02:57:49.872Z,65.97
2023-01-09T03:00:32.560Z,76.03
2023-01-09T03:03:11.619Z,83.07
2023-01-09T03:05:51.982Z,77.38
2023-01-09T03:08:25.180Z,80.90
2023-01-09T03:11:06.803Z,70.63
2023-01-09T03:13:46.080Z,69.97
2023-01-09T03:16:21.786Z,65.40
2023-01-09T03:18:51.892Z,69.47
2023-01-09T03:21:21.681Z,69.25
2023-01-09T03:23:58.576Z,72.60
2023-01-09T03:26:29.198Z,74.93
2023-01-09T03:28:57.772Z,77.45
2023-01-09T03:31:25.931Z,71.25
2023-01-09T03:33:53.789Z,74.35
2023-01-09T03:36:22.945Z,76.95
2023-01-09T03:38:51.536Z,83.10
2023-01-09T03:41:19.892Z,81.68
2023-01-09T03:43:48.601Z,77.40
2023-01-09T03:46:17.613Z,80.07
2023-01-09T03:48:44.967Z,76.28
2023-01-09T03:51:12.608Z,83.15
2023-01-09T03:53:40.006Z,77.40
2023-01-09T03:56:08.061Z,81.35
2023-01-09T03:58:35.356Z,78.68
2023-01-09T04:01:05.971Z,75.43
2023-01-09T04:03:33.334Z,80.75
2023-01-09T04:06:01.927Z,81.50
2023-01-09T04:08:29.179Z,80.90
2023-01-09T04:10:57.090Z,80.88
2023-01-09T04:13:24.507Z,84.78
2023-01-09T04:15:52.033Z,77.82
2023-01-09T04:18:19.313Z,81.90
2023-01-09T04:20:50.044Z,85.68
2023-01-09T04:23:17.466Z,74.68
2023-01-09T04:25:45.898Z,82.25
2023-01-09T04:28:13.262Z,77.00
2023-01-09T04:30:40.808Z,80.50
2023-01-09T04:33:08.076Z,70.43
2023-01-09T04:35:35.645Z,86.72
2023-01-09T04:38:03.022Z,83.88
2023-01-09T04:40:30.596Z,83.65
2023-01-09T04:42:57.804Z,79.60
2023-01-09T04:45:25.375Z,83.00
2023-01-09T04:47:52.658Z,69.40
2023-01-09T04:50:20.277Z,70.40
2023-01-09T04:52:47.570Z,67.78
2023-01-09T04:55:15.140Z,68.93
2023-01-09T04:57:42.377Z,77.18
2023-01-09T05:00:12.403Z,82.03
2023-01-09T05:02:40.943Z,85.78
2023-01-09T05:05:11.707Z,72.45
2023-01-09T05:07:39.906Z,71.72
2023-01-09T05:10:10.156Z,63.80
2023-01-09T05:12:37.821Z,57.97
2023-01-09T05:15:07.009Z,51.75
2023-01-09T05:17:34.819Z,59.03
2023-01-09T05:20:02.447Z,54.78
2023-01-09T05:22:30.059Z,53.55
2023-01-09T05:25:00.276Z,62.45
2023-01-09T05:27:28.191Z,57.95
2023-01-09T05:29:55.837Z,60.13
2023-01-09T05:32:23.178Z,59.08
2023-01-09T05:34:50.751Z,54.97
2023-01-09T05:37:18.029Z,55.58
2023-01-09T05:39:45.593Z,51.95
2023-01-09T05:42:12.841Z,55.33
2023-01-09T05:44:40.462Z,57.30
2023-01-09T05:47:07.749Z,43.95
2023-01-09T05:49:35.266Z,50.20
2023-01-09T05:52:02.683Z,46.10
2023-01-09T05:54:30.486Z,49.40
2023-01-09T05:56:58.079Z,43.25
2023-01-09T05:59:25.678Z,40.95
2023-01-09T06:01:54.479Z,39.95
2023-01-09T06:04:22.372Z,37.42
2023-01-09T06:06:49.637Z,42.63
2023-01-09T06:09:17.159Z,36.63
2023-01-09T06:11:44.479Z,36.90
2023-01-09T06:14:12.055Z,38.03
2023-01-09T06:16:39.421Z,38.97
2023-01-09T06:19:07.312Z,37.63
2023-01-09T06:21:34.829Z,37.53
2023-01-09T06:24:02.463Z,35.53
2023-01-09T06:26:29.857Z,34.17
2023-01-09T06:28:57.554Z,34.72
2023-01-09T06:31:25.537Z,35.75
2023-01-09T06:33:54.098Z,33.22
2023-01-09T06:36:22.595Z,34.03
2023-01-09T06:38:50.354Z,33.78
2023-01-09T06:41:18.469Z,35.08
2023-01-09T06:43:46.063Z,35.30
2023-01-09T06:46:13.528Z,32.05
2023-01-09T06:48:41.157Z,37.78
2023-01-09T06:51:08.551Z,38.15
2023-01-09T06:53:36.156Z,38.95
2023-01-09T06:56:03.733Z,40.95
2023-01-09T06:58:31.345Z,37.28
2023-01-09T07:01:01.640Z,38.17
2023-01-09T07:03:29.423Z,37.95
2023-01-09T07:05:57.021Z,40.25
2023-01-09T07:08:24.724Z,43.47
2023-01-09T07:10:52.892Z,40.88
2023-01-09T07:13:20.495Z,42.13
2023-01-09T07:15:47.873Z,43.80
2023-01-09T07:18:15.608Z,42.25
2023-01-09T07:20:42.955Z,44.55
2023-01-09T07:23:14.482Z,44.30
2023-01-09T07:25:45.725Z,39.17
2023-01-09T07:28:13.433Z,42.20
2023-01-09T07:30:40.793Z,39.10
2023-01-09T07:33:08.409Z,43.92
2023-01-09T07:35:35.981Z,47.95
2023-01-09T07:38:03.578Z,47.63
2023-01-09T07:40:31.037Z,46.55
2023-01-09T07:42:58.622Z,47.45
2023-01-09T07:45:25.954Z,43.05
2023-01-09T07:47:53.591Z,48.70
2023-01-09T07:50:21.079Z,49.17
2023-01-09T07:52:48.860Z,44.95
2023-01-09T07:55:17.563Z,47.35
2023-01-09T07:57:50.196Z,41.25
2023-01-09T08:00:19.068Z,41.08
2023-01-09T08:02:51.001Z,42.10
2023-01-09T08:05:19.130Z,39.15
2023-01-09T08:07:46.732Z,39.40
2023-01-09T08:10:14.063Z,34.65
2023-01-09T08:12:44.421Z,35.10
2023-01-09T08:15:12.782Z,37.08
2023-01-09T08:17:43.996Z,31.77
2023-01-09T08:20:13.466Z,36.72
2023-01-09T08:22:50.608Z,37.50
2023-01-09T08:25:18.703Z,35.45
2023-01-09T08:27:47.171Z,35.53
2023-01-09T08:30:15.870Z,37.65
2023-01-09T08:32:44.127Z,42.35
2023-01-09T08:35:12.074Z,37.38
2023-01-09T08:37:39.649Z,41.22
2023-01-09T08:40:07.909Z,40.67
2023-01-09T08:42:54.827Z,41.55
2023-01-09T08:45:40.786Z,42.10
2023-01-09T08:48:08.750Z,37.78
2023-01-09T08:50:36.153Z,37.58
2023-01-09T08:53:03.903Z,38.05
2023-01-09T08:55:31.257Z,40.63
2023-01-09T08:57:58.841Z,36.70
2023-01-09T09:00:26.658Z,37.42
2023-01-09T09:02:57.322Z,39.88
2023-01-09T09:05:27.638Z,35.53
2023-01-09T09:07:55.950Z,38.30
2023-01-09T09:10:26.884Z,38.53
2023-01-09T09:12:57.880Z,37.03
2023-01-09T09:15:28.243Z,38.17
2023-01-09T09:17:59.795Z,38.90
2023-01-09T09:20:31.273Z,36.35
2023-01-09T09:22:59.327Z,33.05
2023-01-09T09:25:27.845Z,34.47
2023-01-09T09:28:01.190Z,37.05
2023-01-09T09:30:28.855Z,31.80
2023-01-09T09:32:56.660Z,34.63
2023-01-09T09:35:24.072Z,28.42
2023-01-09T09:38:03.921Z,26.77
2023-01-09T09:40:43.004Z,27.02
2023-01-09T09:44:32.463Z,21.13
2023-01-09T09:47:11.078Z,21.48
2023-01-09T09:50:17.702Z,19.90
2023-01-09T09:52:50.705Z,17.85
2023-01-09T09:55:32.289Z,15.82
2023-01-09T09:58:30.742Z,15.23
2023-01-09T10:01:01.229Z,17.52
2023-01-09T10:03:49.202Z,11.85
2023-01-09T10:06:31.362Z,10.52
2023-01-09T10:09:16.819Z,12.07
2023-01-09T10:12:31.791Z,8.88
2023-01-09T10:15:17.972Z,10.05
2023-01-09T10:17:48.377Z,11.93
2023-01-09T10:20:36.634Z,11.05
2023-01-09T10:23:38.349Z,9.50
2023-01-09T10:26:21.969Z,8.80
2023-01-09T10:29:23.317Z,8.93
2023-01-09T10:32:33.493Z,8.75
2023-01-09T10:35:36.115Z,8.40
2023-01-09T10:38:15.938Z,6.53
2023-01-09T10:41:07.874Z,7.80
2023-01-09T10:43:44.738Z,5.15
2023-01-09T10:46:35.875Z,5.50
2023-01-09T10:49:16.514Z,4.97
2023-01-09T10:51:52.385Z,5.97
2023-01-09T10:54:23.840Z,4.93
2023-01-09T10:57:12.675Z,6.28
2023-01-09T10:59:42.439Z,5.25
2023-01-09T11:02:37.451Z,3.50
2023-01-09T11:05:05.206Z,4.00
2023-01-09T11:07:39.272Z,6.30
2023-01-09T11:10:12.227Z,6.15
2023-01-09T11:12:40.648Z,6.13
2023-01-09T11:15:17.092Z,3.70
2023-01-09T11:17:50.546Z,7.30
2023-01-09T11:20:28.782Z,6.63
2023-01-09T11:22:59.008Z,6.15
2023-01-09T11:25:29.425Z,5.45
2023-01-09T11:28:09.836Z,5.07
2023-01-09T11:30:51.945Z,5.40
2023-01-09T11:33:24.794Z,5.38
2023-01-09T11:36:00.520Z,6.22
2023-01-09T11:38:31.906Z,7.82
2023-01-09T11:41:04.026Z,7.13
2023-01-09T11:43:40.163Z,7.10
2023-01-09T11:46:11.696Z,7.55
2023-01-09T11:48:59.299Z,7.20
2023-01-09T11:51:36.905Z,8.27
2023-01-09T11:54:23.821Z,9.05
2023-01-09T11:56:52.521Z,8.23
2023-01-09T11:59:26.441Z,8.73
2023-01-09T12:02:29.521Z,8.90
2023-01-09T12:05:15.963Z,7.68
2023-01-09T12:08:26.366Z,7.35
2023-01-09T12:11:21.465Z,8.50
2023-01-09T12:14:20.580Z,11.15
2023-01-09T12:17:06.543Z,9.80
2023-01-09T12:20:10.167Z,8.90
2023-01-09T12:23:23.336Z,11.65
2023-01-09T12:26:11.485Z,12.25
2023-01-09T12:29:29.280Z,10.40
2023-01-09T12:32:34.956Z,10.07
2023-01-09T12:35:34.283Z,13.10
2023-01-09T12:38:29.538Z,7.88
2023-01-09T12:41:23.926Z,9.75
2023-01-09T12:44:08.867Z,9.23
2023-01-09T12:46:53.881Z,9.85
2023-01-09T12:49:35.665Z,9.27
2023-01-09T12:52:23.456Z,9.63
2023-01-09T12:55:17.123Z,12.27
2023-01-09T12:57:52.410Z,10.05
2023-01-09T13:00:58.732Z,8.57
2023-01-09T13:04:03.639Z,8.45
2023-01-09T13:06:37.483Z,8.70
2023-01-09T13:09:43.328Z,8.93
2023-01-09T13:12:21.739Z,9.43
2023-01-09T13:15:33.102Z,9.63
2023-01-09T13:18:23.122Z,9.13
2023-01-09T13:20:56.793Z,10.50
2023-01-09T13:24:01.824Z,9.07
2023-01-09T13:26:42.015Z,7.63
2023-01-09T13:29:22.855Z,10.63
2023-01-09T13:32:01.197Z,11.20
2023-01-09T13:34:32.507Z,11.40
2023-01-09T13:37:00.998Z,11.30
2023-01-09T13:39:33.943Z,16.20
2023-01-09T13:42:24.997Z,16.13
2023-01-09T13:45:11.052Z,16.73
2023-01-09T13:47:39.023Z,14.63
2023-01-09T13:50:22.281Z,16.38
2023-01-09T13:52:50.660Z,14.88
2023-01-09T13:55:18.049Z,21.77
2023-01-09T13:57:45.664Z,12.68
2023-01-09T14:00:13.000Z,12.13
2023-01-09T14:02:44.997Z,11.68
2023-01-09T14:05:16.389Z,10.98
2023-01-09T14:07:49.399Z,14.98
2023-01-09T14:10:52.292Z,11.50
2023-01-09T14:13:44.933Z,10.13
2023-01-09T14:16:27.319Z,10.07
2023-01-09T14:19:06.286Z,10.70
2023-01-09T14:22:04.662Z,11.77
2023-01-09T14:24:43.066Z,15.77
2023-01-09T14:27:55.519Z,14.80
2023-01-09T14:30:38.322Z,14.60
2023-01-09T14:33:18.607Z,12.43
2023-01-09T14:36:24.269Z,13.68
2023-01-09T14:39:08.107Z,10.95
2023-01-09T14:42:00.814Z,11.70
2023-01-09T14:44:43.379Z,11.80
2023-01-09T14:47:43.306Z,12.65
2023-01-09T14:50:46.531Z,16.58
2023-01-09T14:53:24.644Z,13.68
2023-01-09T14:55:58.154Z,12.70
2023-01-09T14:58:36.977Z,12.70
2023-01-09T15:01:15.235Z,13.98
2023-01-09T15:03:59.060Z,17.05
2023-01-09T15:06:36.197Z,15.55
2023-01-09T15:09:15.993Z,14.82
2023-01-09T15:11:45.072Z,14.73
2023-01-09T15:14:43.633Z,18.17
2023-01-09T15:17:30.713Z,22.80
2023-01-09T15:20:04.972Z,22.00
2023-01-09T15:22:35.872Z,23.63
2023-01-09T15:25:45.410Z,24.63
2023-01-09T15:28:35.021Z,25.38
2023-01-09T15:31:18.212Z,25.27
2023-01-09T15:33:48.529Z,24.92
2023-01-09T15:36:21.262Z,26.80
2023-01-09T15:38:50.873Z,23.63
2023-01-09T15:41:49.496Z,21.77
2023-01-09T15:44:30.324Z,25.50
2023-01-09T15:47:01.494Z,21.85
2023-01-09T15:49:29.811Z,23.73
2023-01-09T15:51:57.888Z,19.63
2023-01-09T15:54:33.047Z,24.00
2023-01-09T15:57:25.500Z,23.08
2023-01-09T16:00:17.751Z,25.98
2023-01-09T16:03:06.708Z,22.38
2023-01-09T16:05:34.162Z,23.35
2023-01-09T16:08:02.703Z,25.73
2023-01-09T16:10:36.092Z,30.98
2023-01-09T16:13:03.959Z,27.25
2023-01-09T16:15:35.109Z,31.35
2023-01-09T16:18:15.620Z,34.17
2023-01-09T16:20:44.489Z,35.63
2023-01-09T16:23:29.641Z,37.17
2023-01-09T16:26:04.212Z,33.35
2023-01-09T16:28:32.304Z,31.48
2023-01-09T16:31:27.258Z,31.70
2023-01-09T16:34:07.439Z,32.40
2023-01-09T16:36:36.721Z,33.97
2023-01-09T16:39:04.839Z,35.25
2023-01-09T16:41:50.519Z,37.15
2023-01-09T16:44:19.531Z,42.20
2023-01-09T16:46:47.036Z,41.85
2023-01-09T16:49:23.655Z,37.47
2023-01-09T16:51:52.241Z,37.70
2023-01-09T16:54:20.993Z,41.38
2023-01-09T16:56:52.339Z,39.17
2023-01-09T16:59:26.698Z,37.70
2023-01-09T17:01:55.450Z,35.20
2023-01-09T17:04:26.101Z,31.17
2023-01-09T17:06:53.528Z,34.25
2023-01-09T17:09:24.593Z,35.65
2023-01-09T17:11:53.291Z,35.90
2023-01-09T17:14:20.978Z,35.20
2023-01-09T17:16:48.589Z,35.65
2023-01-09T17:19:20.735Z,43.08
2023-01-09T17:21:48.156Z,43.15
2023-01-09T17:24:34.365Z,48.50
2023-01-09T17:27:21.484Z,43.30
2023-01-09T17:29:49.127Z,36.85
2023-01-09T17:32:18.631Z,37.70
2023-01-09T17:34:46.401Z,33.42
2023-01-09T17:37:16.607Z,37.35
2023-01-09T17:39:45.864Z,35.30
2023-01-09T17:42:13.394Z,35.30
2023-01-09T17:44:41.082Z,38.88
2023-01-09T17:47:16.074Z,38.97
2023-01-09T17:49:44.193Z,37.33
2023-01-09T17:52:11.497Z,47.00
2023-01-09T17:54:39.973Z,49.65
2023-01-09T17:57:09.539Z,56.15
2023-01-09T17:59:37.240Z,62.17
2023-01-09T18:02:04.885Z,60.42
2023-01-09T18:04:32.576Z,61.55
2023-01-09T18:06:59.887Z,51.70
2023-01-09T18:09:27.487Z,48.78
2023-01-09T18:11:54.809Z,47.35
2023-01-09T18:14:22.358Z,43.40
2023-01-09T18:16:49.915Z,40.35
2023-01-09T18:19:17.537Z,44.13
2023-01-09T18:21:46.875Z,42.10
2023-01-09T18:24:14.520Z,40.92
2023-01-09T18:26:41.894Z,42.08
2023-01-09T18:29:11.575Z,43.10
2023-01-09T18:31:38.914Z,45.45
2023-01-09T18:34:07.561Z,50.80
2023-01-09T18:36:35.605Z,50.88
2023-01-09T18:39:05.585Z,56.30
2023-01-09T18:41:33.131Z,57.50
2023-01-09T18:44:01.962Z,52.95
2023-01-09T18:46:32.897Z,50.60
2023-01-09T18:49:04.026Z,50.88
2023-01-09T18:51:35.057Z,44.17
2023-01-09T18:54:02.858Z,42.90
2023-01-09T18:56:30.396Z,36.95
2023-01-09T18:58:58.323Z,29.73
2023-01-09T19:01:28.577Z,35.00
2023-01-09T19:03:57.934Z,39.88
2023-01-09T19:06:30.248Z,39.50
2023-01-09T19:09:01.126Z,44.67
2023-01-09T19:11:28.652Z,44.60
2023-01-09T19:13:56.547Z,53.63
2023-01-09T19:16:23.868Z,66.70
2023-01-09T19:18:51.610Z,59.85
2023-01-09T19:21:23.783Z,67.35
2023-01-09T19:23:51.444Z,57.58
2023-01-09T19:26:31.017Z,55.33
2023-01-09T19:28:59.599Z,50.78
2023-01-09T19:31:31.564Z,44.13
2023-01-09T19:33:59.268Z,43.25
2023-01-09T19:36:28.031Z,39.92
2023-01-09T19:39:00.952Z,36.75
2023-01-09T19:41:28.988Z,38.83
2023-01-09T19:43:56.807Z,36.67
2023-01-09T19:46:25.657Z,36.03
2023-01-09T19:48:54.250Z,35.80
2023-01-09T19:51:22.490Z,36.40
2023-01-09T19:56:30.322Z,35.03
2023-01-09T19:59:01.609Z,36.75
2023-01-09T20:01:33.171Z,29.13
2023-01-09T20:04:05.045Z,28.50
2023-01-09T20:06:32.886Z,37.70
2023-01-09T20:09:04.119Z,37.40
2023-01-09T20:11:33.233Z,37.75
2023-01-09T20:14:01.126Z,37.47
2023-01-09T20:16:30.865Z,38.03
2023-01-09T20:19:03.989Z,37.30
2023-01-09T20:21:31.443Z,36.05
2023-01-09T20:24:01.470Z,38.53
2023-01-09T20:26:30.456Z,74.07
2023-01-09T20:28:58.329Z,67.93
2023-01-09T20:31:28.586Z,74.88
2023-01-09T20:33:56.218Z,44.92
2023-01-09T20:36:29.183Z,40.90
2023-01-09T20:39:00.123Z,47.28
2023-01-09T20:41:30.831Z,41.75
2023-01-09T20:44:06.845Z,49.42
2023-01-09T20:46:41.377Z,49.70
2023-01-09T20:49:13.426Z,46.33
2023-01-09T20:51:46.123Z,42.30
2023-01-09T20:54:15.128Z,47.85
2023-01-09T20:56:42.988Z,48.78
2023-01-09T20:59:23.186Z,57.95
2023-01-09T21:01:51.568Z,56.50
2023-01-09T21:04:19.650Z,60.90
2023-01-09T21:06:49.733Z,54.13
2023-01-09T21:09:17.723Z,49.38
2023-01-09T21:11:45.449Z,57.22
2023-01-09T21:14:12.800Z,51.42
2023-01-09T21:16:40.491Z,53.47
2023-01-09T21:19:07.920Z,57.13
2023-01-09T21:21:35.534Z,67.88
2023-01-09T21:24:04.578Z,65.35
2023-01-09T21:26:32.294Z,66.93
2023-01-09T21:29:02.071Z,57.03
2023-01-09T21:31:35.566Z,50.67
2023-01-09T21:34:08.579Z,52.53
2023-01-09T21:36:36.626Z,58.22
2023-01-09T21:39:08.121Z,53.22
2023-01-09T21:41:54.865Z,51.15
2023-01-09T21:44:40.704Z,51.25
2023-01-09T21:47:08.706Z,51.35
2023-01-09T21:49:41.823Z,46.22
2023-01-09T21:52:13.878Z,51.55
2023-01-09T21:54:42.023Z,43.33
2023-01-09T21:57:10.443Z,41.10
2023-01-09T21:59:37.809Z,40.63
2023-01-09T22:02:05.416Z,39.10
2023-01-09T22:04:33.630Z,40.00
2023-01-09T22:07:01.344Z,38.70
2023-01-09T22:09:28.702Z,38.28
2023-01-09T22:11:57.553Z,40.60
2023-01-09T22:14:24.835Z,48.33
2023-01-09T22:16:52.448Z,46.05
2023-01-09T22:19:19.819Z,45.63
2023-01-09T22:21:48.263Z,41.28
2023-01-09T22:24:18.821Z,38.53
2023-01-09T22:26:46.702Z,38.05
2023-01-09T22:29:16.212Z,37.72
2023-01-09T22:31:44.073Z,41.63
2023-01-09T22:34:16.177Z,39.25
2023-01-09T22:36:45.988Z,40.42
2023-01-09T22:39:17.078Z,35.13
2023-01-09T22:41:45.624Z,37.92
2023-01-09T22:44:13.375Z,44.33
2023-01-09T22:46:41.178Z,39.08
2023-01-09T22:49:12.085Z,38.85
2023-01-09T22:51:40.205Z,43.05
2023-01-09T22:54:07.762Z,37.78
2023-01-09T22:56:35.705Z,43.70
2023-01-09T22:59:03.281Z,50.53
2023-01-09T23:01:31.016Z,49.25
2023-01-09T23:03:58.325Z,50.67
2023-01-09T23:06:26.168Z,52.92
2023-01-09T23:08:53.754Z,52.35
2023-01-09T23:11:45.397Z,47.53
2023-01-09T23:14:13.340Z,58.00
2023-01-09T23:16:41.137Z,56.33
2023-01-09T23:19:17.495Z,66.35
2023-01-09T23:21:46.085Z,54.05
2023-01-09T23:24:16.898Z,62.63
2023-01-09T23:26:45.142Z,58.78
2023-01-09T23:29:13.767Z,62.55
2023-01-09T23:31:41.507Z,61.83
2023-01-09T23:34:13.413Z,51.20
2023-01-09T23:36:41.761Z,50.13
2023-01-09T23:39:10.147Z,49.90
2023-01-09T23:42:03.778Z,49.17
2023-01-09T23:44:31.232Z,45.90
2023-01-09T23:46:58.872Z,40.28
2023-01-09T23:49:26.426Z,36.80
2023-01-09T23:52:12.292Z,38.13
2023-01-09T23:54:39.894Z,39.58
2023-01-09T23:57:07.223Z,33.95
2023-01-09T23:59:34.994Z,30.17
